Time;durP1;ratioP1;P1;durP2;ratioP2;P2;SDS_P1;SDS_P2;PMS_P1;PMS_P2;Temp;Humidity;BMP_temperature;BMP_pressure;BME280_temperature;BME280_humidity;BME280_pressure;Samples;Min_cycle;Max_cycle;Signal;HPM_P1;HPM_P2
2021/06/11 00:01:39;;;;;;;15.23;9.83;;;14.00;99.90;;;;;;4997000;28;21529;-74
2021/06/11 00:04:08;;;;;;;13.90;9.13;;;13.90;99.90;;;;;;4999809;28;20293;-75
2021/06/11 00:06:37;;;;;;;15.63;8.87;;;13.90;99.90;;;;;;4991763;28;20576;-75
2021/06/11 00:09:07;;;;;;;13.50;9.03;;;13.80;99.90;;;;;;4992816;28;20204;-75
2021/06/11 00:11:36;;;;;;;15.80;9.70;;;13.80;99.90;;;;;;4990023;28;20264;-74
2021/06/11 00:14:05;;;;;;;12.00;9.20;;;13.90;99.90;;;;;;4991336;28;20204;-75
2021/06/11 00:16:35;;;;;;;14.67;9.43;;;13.90;99.90;;;;;;5001697;28;20316;-74
2021/06/11 00:19:03;;;;;;;19.60;9.43;;;13.90;99.90;;;;;;4997012;28;20304;-74
2021/06/11 00:21:32;;;;;;;15.60;9.30;;;13.80;99.90;;;;;;4994517;28;20263;-75
2021/06/11 00:23:59;;;;;;;12.37;9.03;;;13.80;99.90;;;;;;4998399;28;20686;-74
2021/06/11 00:26:25;;;;;;;17.10;8.93;;;13.80;99.90;;;;;;4995394;28;20244;-75
2021/06/11 00:28:51;;;;;;;13.50;9.23;;;13.80;99.90;;;;;;4994505;28;20728;-75
2021/06/11 00:31:21;;;;;;;15.30;9.23;;;13.70;99.90;;;;;;4990760;28;20224;-74
2021/06/11 00:33:50;;;;;;;12.20;9.03;;;13.70;99.90;;;;;;4991345;28;20205;-75
2021/06/11 00:36:20;;;;;;;12.97;9.30;;;13.70;99.90;;;;;;4993037;28;20305;-74
2021/06/11 00:38:49;;;;;;;12.10;9.10;;;13.60;99.90;;;;;;4992822;28;20831;-74
2021/06/11 00:41:19;;;;;;;12.53;9.23;;;13.50;99.90;;;;;;4990657;28;20314;-74
2021/06/11 00:43:48;;;;;;;15.00;9.80;;;13.40;99.90;;;;;;4991657;28;20732;-74
2021/06/11 00:46:14;;;;;;;14.30;8.83;;;13.40;99.90;;;;;;4996304;28;20197;-75
2021/06/11 00:48:44;;;;;;;15.00;9.63;;;13.40;99.90;;;;;;4993659;28;20306;-75
2021/06/11 00:51:10;;;;;;;12.93;9.30;;;13.40;99.90;;;;;;4992043;28;20215;-74
2021/06/11 00:53:40;;;;;;;13.37;9.30;;;13.40;99.90;;;;;;4991662;28;20205;-74
2021/06/11 00:56:07;;;;;;;13.93;9.70;;;13.40;99.90;;;;;;4990537;28;20235;-74
2021/06/11 00:58:33;;;;;;;15.83;9.40;;;13.30;99.90;;;;;;4990774;28;20296;-75
2021/06/11 01:01:00;;;;;;;13.43;9.47;;;13.30;99.90;;;;;;4989064;28;20318;-75
2021/06/11 01:03:30;;;;;;;13.07;9.50;;;13.30;99.90;;;;;;4992306;28;20295;-75
2021/06/11 01:05:56;;;;;;;14.20;9.13;;;13.30;99.90;;;;;;4991626;28;20651;-75
2021/06/11 01:08:24;;;;;;;16.77;9.03;;;13.30;99.90;;;;;;4991948;28;20307;-73
2021/06/11 01:10:52;;;;;;;13.47;9.40;;;13.30;99.90;;;;;;4990608;28;20224;-73
2021/06/11 01:13:19;;;;;;;12.17;8.83;;;13.30;99.90;;;;;;4992149;28;20407;-75
2021/06/11 01:15:48;;;;;;;13.13;9.37;;;13.20;99.90;;;;;;4993001;28;20318;-73
2021/06/11 01:18:15;;;;;;;12.27;9.43;;;13.20;99.90;;;;;;4999086;28;20271;-75
2021/06/11 01:20:42;;;;;;;13.40;8.53;;;13.20;99.90;;;;;;4992886;28;20232;-73
2021/06/11 01:23:45;;;;;;;10.63;8.70;;;13.20;99.90;;;;;;4996178;28;20287;-73
2021/06/11 01:26:29;;;;;;;12.67;8.33;;;13.20;99.90;;;;;;4990556;28;20207;-73
2021/06/11 01:28:59;;;;;;;13.30;8.43;;;13.20;99.90;;;;;;4990203;28;20204;-74
2021/06/11 01:31:27;;;;;;;13.10;8.40;;;13.10;99.90;;;;;;4989947;28;20278;-76
2021/06/11 01:33:58;;;;;;;11.53;8.60;;;13.10;99.90;;;;;;4991806;28;20276;-75
2021/06/11 01:36:29;;;;;;;14.60;9.53;;;13.10;99.90;;;;;;4990305;28;20220;-76
2021/06/11 01:38:59;;;;;;;15.27;9.60;;;13.10;99.90;;;;;;4991952;28;20212;-76
2021/06/11 01:41:27;;;;;;;19.90;11.20;;;13.00;99.90;;;;;;4991124;28;20324;-75
2021/06/11 01:43:56;;;;;;;15.87;10.73;;;13.00;99.90;;;;;;4990740;28;20255;-75
2021/06/11 01:46:25;;;;;;;17.27;10.50;;;12.90;99.90;;;;;;4997608;28;20220;-74
2021/06/11 01:48:51;;;;;;;17.50;10.67;;;12.90;99.90;;;;;;4993316;28;20292;-74
2021/06/11 01:51:20;;;;;;;19.13;10.03;;;12.90;99.90;;;;;;4993085;28;20765;-76
2021/06/11 01:53:47;;;;;;;17.30;10.57;;;12.90;99.90;;;;;;4995998;28;20208;-75
2021/06/11 01:56:17;;;;;;;13.63;9.60;;;12.80;99.90;;;;;;4994746;28;20248;-76
2021/06/11 01:58:45;;;;;;;19.77;10.33;;;12.80;99.90;;;;;;4996394;28;20216;-75
2021/06/11 02:01:13;;;;;;;17.83;11.10;;;12.60;99.90;;;;;;4993146;28;20285;-74
2021/06/11 02:03:40;;;;;;;14.97;11.03;;;12.50;99.90;;;;;;4995013;28;20242;-76
2021/06/11 02:06:07;;;;;;;16.60;10.87;;;12.50;99.90;;;;;;4992674;28;20793;-76
2021/06/11 02:08:34;;;;;;;14.27;11.30;;;12.40;99.90;;;;;;4994181;28;20205;-75
2021/06/11 02:11:01;;;;;;;15.33;10.87;;;12.50;99.90;;;;;;4993658;28;20220;-76
2021/06/11 02:13:28;;;;;;;17.20;11.73;;;12.40;99.90;;;;;;4994384;28;20235;-75
2021/06/11 02:15:58;;;;;;;16.83;11.20;;;12.40;99.90;;;;;;4997936;28;20224;-75
2021/06/11 02:18:26;;;;;;;14.37;11.23;;;12.40;99.90;;;;;;4993887;28;20205;-75
2021/06/11 02:20:52;;;;;;;15.67;11.77;;;12.40;99.90;;;;;;4992912;28;20224;-76
2021/06/11 02:23:19;;;;;;;15.93;11.30;;;12.30;99.90;;;;;;4993396;28;20635;-75
2021/06/11 02:25:46;;;;;;;16.53;10.93;;;12.30;99.90;;;;;;4996705;28;20205;-75
2021/06/11 02:28:16;;;;;;;18.03;11.77;;;12.30;99.90;;;;;;4998410;28;20220;-75
2021/06/11 02:30:43;;;;;;;15.20;12.23;;;12.30;99.90;;;;;;4996836;28;20225;-75
2021/06/11 02:33:11;;;;;;;17.07;12.27;;;12.20;99.90;;;;;;5001267;28;20303;-76
2021/06/11 02:35:38;;;;;;;14.97;11.53;;;12.20;99.90;;;;;;4997149;28;20258;-75
2021/06/11 02:38:04;;;;;;;17.47;11.70;;;12.10;99.90;;;;;;4992839;28;20296;-75
2021/06/11 02:40:31;;;;;;;19.23;10.77;;;12.10;99.90;;;;;;4993779;28;20404;-75
2021/06/11 02:43:04;;;;;;;16.77;10.80;;;12.10;99.90;;;;;;4993086;28;20292;-75
2021/06/11 02:45:35;;;;;;;18.43;10.93;;;12.00;99.90;;;;;;4994117;28;20296;-74
2021/06/11 02:48:14;;;;;;;15.73;11.53;;;12.00;99.90;;;;;;4992451;28;20205;-76
2021/06/11 02:50:45;;;;;;;19.07;11.93;;;12.00;99.90;;;;;;4991957;28;20232;-75
2021/06/11 02:53:15;;;;;;;17.63;11.30;;;12.00;99.90;;;;;;4992165;28;20607;-74
2021/06/11 02:55:44;;;;;;;18.10;12.00;;;12.00;99.90;;;;;;4991115;28;20244;-74
2021/06/11 02:58:14;;;;;;;19.20;12.40;;;12.00;99.90;;;;;;4992278;28;20219;-76
2021/06/11 03:00:43;;;;;;;15.83;12.43;;;12.00;99.90;;;;;;4990860;28;20220;-76
2021/06/11 03:03:15;;;;;;;20.93;12.70;;;12.00;99.90;;;;;;4992890;28;20321;-74
2021/06/11 03:05:43;;;;;;;20.30;12.27;;;12.00;99.90;;;;;;4993175;28;20211;-75
2021/06/11 03:08:12;;;;;;;16.57;11.67;;;12.00;99.90;;;;;;4991541;28;20481;-74
2021/06/11 03:10:44;;;;;;;17.30;12.00;;;11.90;99.90;;;;;;4993135;28;20298;-75
2021/06/11 03:13:11;;;;;;;18.67;12.97;;;11.90;99.90;;;;;;4991258;28;20510;-75
2021/06/11 03:15:38;;;;;;;19.20;12.30;;;11.90;99.90;;;;;;4992092;28;20726;-75
2021/06/11 03:18:08;;;;;;;18.80;12.60;;;11.90;99.90;;;;;;4992729;28;20204;-76
2021/06/11 03:20:40;;;;;;;18.07;11.73;;;11.90;99.90;;;;;;4991171;28;20291;-76
2021/06/11 03:23:12;;;;;;;16.80;12.23;;;11.80;99.90;;;;;;4992548;28;20613;-76
2021/06/11 03:25:44;;;;;;;18.07;11.73;;;11.80;99.90;;;;;;4991143;28;20212;-75
2021/06/11 03:28:16;;;;;;;20.97;12.43;;;11.80;99.90;;;;;;4992357;28;20204;-74
2021/06/11 03:30:47;;;;;;;19.90;13.20;;;11.80;99.90;;;;;;4994189;28;20231;-74
2021/06/11 03:33:19;;;;;;;17.37;12.80;;;11.80;99.90;;;;;;4991563;28;20299;-76
2021/06/11 03:35:53;;;;;;;28.10;14.47;;;11.90;99.90;;;;;;4994022;28;20236;-76
2021/06/11 03:38:23;;;;;;;20.57;13.53;;;11.90;99.90;;;;;;4994021;28;20232;-76
2021/06/11 03:40:49;;;;;;;19.87;13.53;;;12.00;99.90;;;;;;4992338;28;20647;-76
2021/06/11 03:43:17;;;;;;;22.10;14.30;;;12.00;99.90;;;;;;4991596;28;20213;-76
2021/06/11 03:45:45;;;;;;;23.07;13.67;;;12.10;99.90;;;;;;4991333;28;20292;-75
2021/06/11 03:48:14;;;;;;;18.63;12.77;;;12.30;99.90;;;;;;4993906;28;20512;-75
2021/06/11 03:50:42;;;;;;;21.40;12.60;;;12.70;99.90;;;;;;4992773;28;20776;-74
2021/06/11 03:53:13;;;;;;;16.47;12.33;;;13.10;99.90;;;;;;4994378;28;20196;-75
2021/06/11 03:55:43;;;;;;;15.53;11.83;;;13.70;99.90;;;;;;4992818;28;20223;-75
2021/06/11 03:58:13;;;;;;;17.07;10.83;;;14.10;99.90;;;;;;4990938;28;20212;-75
2021/06/11 04:00:42;;;;;;;13.57;10.43;;;14.40;99.90;;;;;;4991772;28;20582;-75
2021/06/11 04:03:09;;;;;;;14.60;10.43;;;14.90;99.90;;;;;;4989667;28;20212;-74
2021/06/11 04:05:36;;;;;;;12.33;9.40;;;15.30;99.90;;;;;;4992450;28;20294;-76
2021/06/11 04:08:07;;;;;;;10.67;8.67;;;15.80;99.90;;;;;;4989123;28;20217;-75
2021/06/11 04:10:40;;;;;;;15.03;8.83;;;16.10;99.90;;;;;;4990616;28;20770;-76
2021/06/11 04:13:13;;;;;;;16.07;8.87;;;16.50;99.90;;;;;;4992349;28;20262;-76
2021/06/11 04:15:43;;;;;;;11.23;7.93;;;16.90;99.90;;;;;;4991832;28;20266;-75
2021/06/11 04:18:12;;;;;;;14.13;8.43;;;17.10;99.90;;;;;;4994534;28;20737;-75
2021/06/11 04:20:40;;;;;;;14.83;8.00;;;17.50;99.90;;;;;;4988689;28;20243;-76
2021/06/11 04:23:08;;;;;;;16.67;8.10;;;17.80;99.90;;;;;;4989797;28;20204;-76
2021/06/11 04:25:38;;;;;;;11.73;8.27;;;17.90;99.90;;;;;;4994876;28;20663;-75
2021/06/11 04:28:06;;;;;;;11.33;8.50;;;17.90;99.90;;;;;;4999603;28;20570;-76
2021/06/11 04:30:33;;;;;;;12.67;8.30;;;18.30;99.90;;;;;;4991113;28;20228;-76
2021/06/11 04:32:59;;;;;;;13.37;7.83;;;18.80;99.90;;;;;;4990782;28;20211;-75
2021/06/11 04:35:27;;;;;;;13.23;7.87;;;19.10;99.90;;;;;;4995695;28;20546;-75
2021/06/11 04:37:56;;;;;;;18.33;7.67;;;19.40;99.90;;;;;;4991569;28;20675;-75
2021/06/11 04:40:23;;;;;;;10.33;7.60;;;19.80;99.90;;;;;;4991092;28;20636;-75
2021/06/11 04:42:51;;;;;;;12.80;8.20;;;20.10;99.90;;;;;;4991846;28;20747;-76
2021/06/11 04:45:17;;;;;;;13.77;7.60;;;20.50;99.90;;;;;;4993996;28;20747;-75
2021/06/11 04:47:44;;;;;;;12.50;7.77;;;20.80;99.90;;;;;;4989526;28;20216;-77
2021/06/11 04:50:11;;;;;;;11.03;8.30;;;21.00;99.90;;;;;;4992427;28;20262;-76
2021/06/11 04:52:37;;;;;;;14.60;8.90;;;20.70;99.90;;;;;;4988117;28;20479;-76
2021/06/11 04:55:04;;;;;;;12.87;8.10;;;20.80;99.90;;;;;;4994171;28;20251;-76
2021/06/11 05:00:00;;;;;;;11.43;8.53;;;21.10;99.90;;;;;;4962358;28;20755;-73
2021/06/11 05:02:26;;;;;;;10.53;8.30;;;21.10;99.90;;;;;;4965277;28;20239;-74
2021/06/11 05:04:53;;;;;;;13.37;8.40;;;21.50;99.90;;;;;;4964578;28;20288;-74
2021/06/11 05:07:19;;;;;;;11.33;8.50;;;21.70;99.90;;;;;;4964520;28;20286;-74
2021/06/11 05:09:45;;;;;;;17.23;8.20;;;22.10;99.90;;;;;;4962079;28;20389;-74
2021/06/11 05:12:12;;;;;;;11.10;7.80;;;22.30;99.90;;;;;;4965431;28;20329;-74
2021/06/11 05:14:38;;;;;;;11.30;8.23;;;22.60;99.90;;;;;;4963334;28;20628;-73
2021/06/11 05:17:06;;;;;;;11.43;7.57;;;22.90;99.90;;;;;;4962445;28;20356;-75
2021/06/11 05:19:33;;;;;;;11.53;8.17;;;22.80;99.90;;;;;;4958899;28;20900;-74
2021/06/11 05:22:02;;;;;;;12.63;8.00;;;23.30;99.90;;;;;;4963743;28;20233;-73
2021/06/11 05:24:31;;;;;;;10.77;7.67;;;23.40;99.90;;;;;;4969169;28;20580;-73
2021/06/11 05:26:58;;;;;;;13.50;8.70;;;;;;;;;;4970403;28;20217;-73
2021/06/11 05:29:26;;;;;;;14.13;9.10;;;;;;;;;;4969304;28;20292;-73
2021/06/11 05:31:53;;;;;;;13.03;8.50;;;;;;;;;;4968688;28;20320;-74
2021/06/11 05:34:21;;;;;;;12.50;8.73;;;;;;;;;;4968361;28;20263;-73
2021/06/11 05:36:47;;;;;;;11.53;7.83;;;;;;;;;;4968997;28;20260;-74
2021/06/11 05:39:14;;;;;;;13.97;8.40;;;;;;;;;;4969184;28;20245;-73
2021/06/11 05:41:41;;;;;;;14.77;8.50;;;;;;;;;;4968802;28;20222;-73
2021/06/11 05:44:07;;;;;;;10.57;8.13;;;;;;;;;;4967470;28;20241;-73
2021/06/11 05:46:34;;;;;;;13.07;8.80;;;;;;;;;;4967827;28;20210;-73
2021/06/11 05:49:01;;;;;;;10.87;8.13;;;;;;;;;;4970154;28;20296;-73
2021/06/11 05:51:29;;;;;;;9.10;7.37;;;;;;;;;;4967115;28;20255;-73
2021/06/11 05:53:55;;;;;;;12.40;7.73;;;;;;;;;;4969699;28;20692;-74
2021/06/11 05:56:22;;;;;;;9.20;7.50;;;;;;;;;;4969480;28;20268;-74
2021/06/11 05:58:49;;;;;;;10.67;7.70;;;;;;;;;;4966352;28;20221;-74
2021/06/11 06:01:15;;;;;;;11.70;7.33;;;;;;;;;;4970034;28;20227;-73
2021/06/11 06:03:43;;;;;;;12.60;7.90;;;;;;;;;;4971225;28;20258;-73
2021/06/11 06:06:09;;;;;;;11.87;8.13;;;;;;;;;;4960898;28;20636;-74
2021/06/11 06:08:37;;;;;;;12.03;6.53;;;;;;;;;;4969417;28;20292;-74
2021/06/11 06:11:04;;;;;;;11.37;7.83;;;;;;;;;;4967243;28;20258;-74
2021/06/11 06:13:31;;;;;;;10.77;7.40;;;;;;;;;;4970476;28;20223;-74
2021/06/11 06:15:58;;;;;;;18.20;7.67;;;;;;;;;;4967389;28;20297;-73
2021/06/11 06:18:24;;;;;;;14.07;7.50;;;;;;;;;;4971424;28;20245;-74
2021/06/11 06:20:51;;;;;;;10.60;7.10;;;;;;;;;;4965975;28;20700;-74
2021/06/11 06:23:18;;;;;;;9.43;7.03;;;;;;;;;;4966738;28;20225;-75
2021/06/11 06:25:46;;;;;;;11.03;6.77;;;;;;;;;;4967879;28;20206;-73
2021/06/11 06:28:13;;;;;;;9.80;6.80;;;;;;;;;;4966801;28;20293;-74
2021/06/11 06:30:40;;;;;;;12.82;6.22;;;;;;;;;;4961876;28;20244;-74
2021/06/11 06:33:07;;;;;;;15.48;6.43;;;;;;;;;;4960870;28;20300;-74
2021/06/11 06:35:33;;;;;;;13.88;6.95;;;;;;;;;;4966305;28;22039;-74
2021/06/11 06:38:00;;;;;;;19.15;6.85;;;;;;;;;;4964526;28;20906;-74
2021/06/11 06:40:27;;;;;;;24.58;6.65;;;;;;;;;;4966135;28;20219;-74
2021/06/11 06:42:55;;;;;;;23.40;6.05;;;;;;;;;;4962164;28;21030;-74
2021/06/11 06:45:21;;;;;;;11.52;6.65;;;;;;;;;;4962461;28;20198;-74
2021/06/11 06:47:48;;;;;;;20.15;6.53;;;;;;;;;;4961749;28;20731;-74
2021/06/11 06:50:17;;;;;;;15.02;6.15;;;;;;;;;;4962834;28;20683;-74
2021/06/11 06:52:43;;;;;;;21.30;6.35;;;;;;;;;;4963926;28;20208;-74
2021/06/11 06:55:11;;;;;;;16.80;6.38;;;;;;;;;;4963454;28;20211;-74
2021/06/11 06:57:38;;;;;;;11.85;5.82;;;;;;;;;;4964693;28;20290;-74
2021/06/11 07:00:07;;;;;;;11.73;5.45;;;;;;;;;;4961811;28;20719;-74
2021/06/11 07:02:35;;;;;;;12.25;5.15;;;;;;;;;;4961551;28;20299;-74
2021/06/11 07:05:01;;;;;;;12.43;5.43;;;;;;;;;;4959493;28;20214;-74
2021/06/11 07:07:28;;;;;;;12.85;4.72;;;;;;;;;;4964468;28;20620;-74
2021/06/11 07:09:55;;;;;;;7.40;4.63;;;;;;;;;;4966415;28;20213;-73
2021/06/11 07:12:21;;;;;;;8.32;4.55;;;;;;;;;;4960265;28;20228;-73
2021/06/11 07:14:48;;;;;;;7.20;3.95;;;;;;;;;;4959805;28;20249;-73
2021/06/11 07:17:16;;;;;;;12.68;4.22;;;;;;;;;;4959191;28;20253;-73
2021/06/11 07:19:43;;;;;;;7.82;4.50;;;;;;;;;;4961737;28;20966;-73
2021/06/11 07:22:10;;;;;;;7.50;3.75;;;;;;;;;;4956910;28;20322;-73
2021/06/11 07:24:37;;;;;;;6.07;3.42;;;;;;;;;;4958149;28;20211;-74
2021/06/11 07:27:04;;;;;;;10.93;4.10;;;;;;;;;;4960187;28;20309;-73
2021/06/11 07:29:31;;;;;;;6.85;4.30;;;;;;;;;;4956733;28;20827;-74
2021/06/11 07:31:58;;;;;;;7.35;4.20;;;;;;;;;;4950480;28;20221;-73
2021/06/11 07:34:26;;;;;;;9.63;4.50;;;;;;;;;;4963071;28;20250;-73
2021/06/11 07:36:53;;;;;;;10.38;3.92;;;;;;;;;;4967131;28;20704;-73
2021/06/11 07:39:20;;;;;;;6.80;4.22;;;;;;;;;;4964813;28;20348;-73
2021/06/11 07:41:49;;;;;;;9.65;4.05;;;;;;;;;;4966962;28;20221;-74
2021/06/11 07:44:16;;;;;;;7.28;4.15;;;;;;;;;;4960185;28;20446;-73
2021/06/11 07:46:42;;;;;;;9.82;4.63;;;;;;;;;;4962225;28;20202;-74
2021/06/11 07:49:09;;;;;;;5.97;3.97;;;;;;;;;;4961068;28;20209;-72
2021/06/11 07:51:38;;;;;;;8.30;4.50;;;;;;;;;;4961692;28;20390;-75
2021/06/11 07:54:06;;;;;;;7.57;4.00;;;;;;;;;;4964495;28;20208;-76
2021/06/11 07:56:33;;;;;;;10.20;3.88;;;;;;;;;;4961537;28;20253;-76
2021/06/11 07:58:59;;;;;;;9.32;3.35;;;;;;;;;;4959086;28;20301;-71
2021/06/11 08:01:26;;;;;;;6.75;3.88;;;;;;;;;;4957225;28;20733;-73
2021/06/11 08:03:53;;;;;;;5.70;3.50;;;;;;;;;;4955974;28;20206;-73
2021/06/11 08:06:20;;;;;;;6.30;3.47;;;;;;;;;;4966737;28;20297;-73
2021/06/11 08:08:48;;;;;;;9.20;3.90;;;;;;;;;;4964264;28;20702;-72
2021/06/11 08:11:15;;;;;;;8.23;4.10;;;;;;;;;;4966903;28;20738;-72
2021/06/11 08:13:42;;;;;;;6.65;3.45;;;;;;;;;;4967884;28;20296;-72
2021/06/11 08:16:08;;;;;;;6.68;3.20;;;;;;;;;;4958156;28;20292;-72
2021/06/11 08:18:35;;;;;;;5.82;3.20;;;;;;;;;;4960867;28;20968;-72
2021/06/11 08:21:01;;;;;;;7.53;3.22;;;;;;;;;;4955520;28;20256;-72
2021/06/11 08:23:28;;;;;;;10.82;3.60;;;;;;;;;;4960322;28;20221;-73
2021/06/11 08:25:56;;;;;;;5.35;3.63;;;;;;;;;;4962953;28;20214;-73
2021/06/11 08:28:23;;;;;;;5.43;3.50;;;;;;;;;;4965597;28;20689;-72
2021/06/11 08:30:50;;;;;;;10.75;3.97;;;;;;;;;;4963601;28;20353;-72
2021/06/11 08:33:16;;;;;;;7.13;4.00;;;;;;;;;;4962384;28;20743;-72
2021/06/11 08:35:43;;;;;;;6.93;3.67;;;;;;;;;;4965483;28;20681;-72
2021/06/11 08:38:10;;;;;;;6.22;3.97;;;;;;;;;;4963969;28;20321;-72
2021/06/11 08:40:36;;;;;;;8.43;4.00;;;;;;;;;;4964523;28;20602;-72
2021/06/11 08:43:06;;;;;;;7.70;4.10;;;;;;;;;;4965701;28;20493;-70
2021/06/11 08:45:33;;;;;;;7.07;4.47;;;;;;;;;;4960291;28;20285;-72
2021/06/11 08:47:59;;;;;;;17.35;6.28;;;;;;;;;;4964724;28;20202;-72
2021/06/11 08:50:27;;;;;;;7.68;4.05;;;;;;;;;;4962119;28;20320;-74
2021/06/11 08:52:54;;;;;;;7.97;3.40;;;;;;;;;;4963042;28;20209;-73
2021/06/11 08:55:21;;;;;;;7.18;3.40;;;;;;;;;;4966712;28;20298;-73
2021/06/11 08:57:48;;;;;;;8.70;3.75;;;;;;;;;;4967860;28;20323;-74
2021/06/11 09:00:16;;;;;;;9.63;3.30;;;;;;;;;;4967670;28;20357;-74
2021/06/11 09:03:03;;;;;;;6.57;3.58;;;;;;;;;;4964068;28;20210;-74
2021/06/11 09:05:30;;;;;;;6.70;4.00;;;;;;;;;;4965229;28;20320;-74
2021/06/11 09:08:11;;;;;;;9.88;3.70;;;;;;;;;;4963047;28;20726;-74
2021/06/11 09:10:38;;;;;;;10.60;3.92;;;;;;;;;;4965814;28;20669;-73
2021/06/11 09:13:04;;;;;;;10.43;4.13;;;;;;;;;;4966379;28;20297;-73
2021/06/11 09:15:33;;;;;;;5.82;3.85;;;;;;;;;;4966253;28;20239;-73
2021/06/11 09:17:59;;;;;;;8.45;4.55;;;;;;;;;;4963789;28;20284;-73
2021/06/11 09:20:28;;;;;;;10.17;4.83;;;;;;;;;;4966985;28;20786;-73
2021/06/11 09:22:55;;;;;;;7.50;4.30;;;;;;;;;;4966486;28;20305;-73
2021/06/11 09:25:26;;;;;;;8.10;3.23;;;;;;;;;;4964088;28;20272;-73
2021/06/11 09:27:55;;;;;;;10.03;3.90;;;;;;;;;;4966541;28;20295;-73
2021/06/11 09:30:23;;;;;;;7.00;3.57;;;;;;;;;;4966357;28;20741;-74
2021/06/11 09:32:58;;;;;;;5.20;3.43;;;;;;;;;;4965489;28;20242;-73
2021/06/11 09:35:31;;;;;;;7.73;4.13;;;;;;;;;;4965269;28;20225;-73
2021/06/11 09:38:08;;;;;;;7.33;4.17;;;;;;;;;;4965696;28;20241;-73
2021/06/11 09:40:35;;;;;;;6.93;3.27;;;;;;;;;;4965666;28;21421;-73
2021/06/11 09:43:02;;;;;;;5.10;3.13;;;;;;;;;;4967253;28;20210;-73
2021/06/11 09:45:29;;;;;;;7.23;3.90;;;;;;;;;;4966941;28;20236;-73
2021/06/11 09:47:56;;;;;;;5.53;3.70;;;;;;;;;;4963504;28;20298;-74
2021/06/11 09:50:25;;;;;;;7.33;3.50;;;;;;;;;;4968383;28;20225;-73
2021/06/11 09:52:53;;;;;;;9.67;4.30;;;;;;;;;;4966249;28;20210;-73
2021/06/11 09:55:24;;;;;;;10.77;3.47;;;;;;;;;;4965547;28;20207;-73
2021/06/11 09:58:02;;;;;;;4.93;3.00;;;;;;;;;;4965657;28;20321;-73
2021/06/11 10:00:30;;;;;;;6.73;3.30;;;;;;;;;;4963107;28;20222;-73
2021/06/11 10:02:58;;;;;;;3.67;2.60;;;;;;;;;;4966860;28;20309;-73
2021/06/11 10:05:26;;;;;;;4.67;3.00;;;;;;;;;;4965123;28;20732;-73
2021/06/11 10:07:53;;;;;;;4.57;2.70;;;;;;;;;;4970001;28;20671;-73
2021/06/11 10:10:20;;;;;;;6.43;2.60;;;;;;;;;;4968504;28;20234;-73
2021/06/11 10:12:47;;;;;;;4.27;2.80;;;;;;;;;;4971449;28;20241;-73
2021/06/11 10:15:14;;;;;;;6.57;2.90;;;;;;;;;;4969636;28;20297;-73
2021/06/11 10:17:42;;;;;;;4.70;2.60;;;;;;;;;;4969578;28;20313;-73
2021/06/11 10:20:09;;;;;;;6.00;3.63;;;;;;;;;;4970496;28;20237;-73
2021/06/11 10:22:38;;;;;;;5.10;2.90;;;;;;;;;;4967484;28;20296;-73
2021/06/11 10:25:05;;;;;;;4.03;2.60;;;;;;;;;;4967841;28;20633;-73
2021/06/11 10:27:32;;;;;;;6.20;2.80;;;;;;;;;;4969824;28;20739;-73
2021/06/11 10:29:59;;;;;;;6.63;2.30;;;;;;;;;;4968946;28;20486;-73
2021/06/11 10:32:26;;;;;;;4.73;2.40;;;;;;;;;;4968612;28;20301;-73
2021/06/11 10:34:53;;;;;;;3.93;2.77;;;;;;;;;;4969442;28;20225;-73
2021/06/11 10:37:32;;;;;;;9.40;3.03;;;;;;;;;;4970698;28;20331;-73
2021/06/11 10:40:14;;;;;;;5.20;2.73;;;;;;;;;;4971087;28;20248;-73
2021/06/11 10:42:42;;;;;;;3.73;2.83;;;;;;;;;;4969092;28;20853;-73
2021/06/11 10:45:11;;;;;;;4.43;3.13;;;;;;;;;;4967677;28;20644;-73
2021/06/11 10:47:39;;;;;;;5.83;2.80;;;;;;;;;;4968686;28;20302;-73
2021/06/11 10:50:11;;;;;;;5.20;2.80;;;;;;;;;;4969472;28;20214;-73
2021/06/11 10:52:39;;;;;;;3.47;2.30;;;;;;;;;;4967819;28;20289;-73
2021/06/11 10:55:25;;;;;;;3.73;2.90;;;;;;;;;;4968780;28;20218;-73
2021/06/11 10:58:06;;;;;;;6.30;2.70;;;;;;;;;;4968611;28;20222;-73
2021/06/11 11:00:35;;;;;;;6.37;2.73;;;;;;;;;;4966554;28;20924;-72
2021/06/11 11:03:02;;;;;;;5.97;2.90;;;;;;;;;;4968878;28;20588;-73
2021/06/11 11:05:29;;;;;;;3.70;2.67;;;;;;;;;;4969701;28;20312;-73
2021/06/11 11:07:56;;;;;;;6.07;2.80;;;;;;;;;;4968990;28;20293;-73
2021/06/11 11:10:39;;;;;;;4.27;2.60;;;;;;;;;;4969965;28;20648;-73
2021/06/11 11:13:06;;;;;;;5.17;2.87;;;;;;;;;;4967314;28;20236;-73
2021/06/11 11:15:35;;;;;;;4.73;2.77;;;;;;;;;;4959928;28;20296;-72
2021/06/11 11:18:02;;;;;;;3.53;2.60;;;;;;;;;;4960005;28;20222;-72
2021/06/11 11:20:30;;;;;;;4.67;2.50;;;;;;;;;;4964977;28;20277;-73
2021/06/11 11:22:59;;;;;;;4.83;3.40;;;;;;;;;;4966036;28;20238;-73
2021/06/11 11:25:26;;;;;;;4.70;2.90;;;;;;;;;;4969503;28;20578;-73
2021/06/11 11:27:53;;;;;;;5.40;2.43;;;;;;;;;;4969967;28;20285;-73
2021/06/11 11:30:23;;;;;;;5.30;2.83;;;;;;;;;;4966972;28;20735;-73
2021/06/11 11:32:51;;;;;;;5.43;2.50;;;;;;;;;;4970152;28;20237;-73
2021/06/11 11:35:19;;;;;;;3.50;2.07;;;;;;;;;;4968911;28;20587;-72
2021/06/11 11:37:48;;;;;;;5.03;2.63;;;;;;;;;;4970097;28;20234;-73
2021/06/11 11:40:15;;;;;;;6.27;3.00;;;;;;;;;;4968590;28;20300;-73
2021/06/11 11:42:58;;;;;;;5.10;2.93;;;;;;;;;;4964715;28;20228;-72
2021/06/11 11:45:26;;;;;;;5.30;2.77;;;;;;;;;;4967654;28;20371;-74
2021/06/11 11:47:54;;;;;;;8.37;2.80;;;;;;;;;;4968159;28;20212;-72
2021/06/11 11:50:21;;;;;;;5.47;2.80;;;;;;;;;;4965009;28;20701;-72
2021/06/11 11:52:48;;;;;;;8.43;3.37;;;;;;;;;;4968916;28;20216;-72
2021/06/11 11:55:15;;;;;;;5.10;3.40;;;;;;;;;;4968059;28;20217;-73
2021/06/11 11:57:42;;;;;;;6.13;3.40;;;;;;;;;;4968450;28;20219;-72
2021/06/11 12:00:10;;;;;;;6.77;3.80;;;;;;;;;;4965175;28;20288;-72
2021/06/11 12:02:36;;;;;;;4.47;3.53;;;;;;;;;;4969048;28;20288;-72
2021/06/11 12:05:05;;;;;;;6.67;3.90;;;;;;;;;;4965404;28;20309;-72
2021/06/11 12:07:31;;;;;;;5.43;3.50;;;;;;;;;;4968301;28;20324;-72
2021/06/11 12:09:59;;;;;;;4.87;3.60;;;;;;;;;;4965295;28;20317;-72
2021/06/11 12:12:25;;;;;;;5.17;3.70;;;;;;;;;;4968473;28;20217;-72
2021/06/11 12:14:52;;;;;;;6.73;3.63;;;;;;;;;;4967622;28;20308;-72
2021/06/11 12:17:19;;;;;;;4.63;3.40;;;;;;;;;;4965289;28;20313;-72
2021/06/11 12:19:46;;;;;;;6.67;4.03;;;;;;;;;;4968264;28;20308;-72
2021/06/11 12:22:15;;;;;;;7.77;3.50;;;;;;;;;;4966892;28;20563;-72
2021/06/11 12:24:41;;;;;;;6.57;3.70;;;;;;;;;;4968165;28;20345;-71
2021/06/11 12:27:08;;;;;;;6.57;3.87;;;;;;;;;;4964119;28;20305;-72
2021/06/11 12:29:35;;;;;;;4.40;3.43;;;;;;;;;;4965069;28;20249;-72
2021/06/11 12:32:02;;;;;;;4.87;3.33;;;;;;;;;;4966253;28;20308;-73
2021/06/11 12:34:29;;;;;;;6.63;3.70;;;;;;;;;;4968479;28;20293;-72
2021/06/11 12:36:56;;;;;;;5.10;3.17;;;;;;;;;;4965918;28;20730;-71
2021/06/11 12:39:24;;;;;;;7.07;3.40;;;;;;;;;;4966119;28;20217;-71
2021/06/11 12:41:54;;;;;;;5.33;3.20;;;;;;;;;;4967645;28;20707;-71
2021/06/11 12:44:21;;;;;;;3.77;2.90;;;;;;;;;;4966438;28;20265;-71
2021/06/11 12:46:49;;;;;;;3.60;2.53;;;;;;;;;;4965464;28;20210;-71
2021/06/11 12:49:16;;;;;;;5.07;2.60;;;;;;;;;;4963491;28;20216;-71
2021/06/11 12:51:43;;;;;;;4.17;2.70;;;;;;;;;;4964973;28;20739;-71
2021/06/11 12:54:10;;;;;;;4.17;2.67;;;;;;;;;;4966513;28;20290;-71
2021/06/11 12:56:39;;;;;;;4.03;2.53;;;;;;;;;;4966849;28;20632;-72
2021/06/11 12:59:05;;;;;;;6.20;2.73;;;;;;;;;;4964887;28;20252;-71
2021/06/11 13:01:32;;;;;;;4.37;2.60;;;;;;;;;;4967249;28;20318;-72
2021/06/11 13:03:59;;;;;;;3.03;2.20;;;;;;;;;;4968549;28;20209;-71
2021/06/11 13:06:26;;;;;;;6.57;2.63;;;;;;;;;;4965696;28;20214;-71
2021/06/11 13:08:52;;;;;;;4.13;2.70;;;;;;;;;;4963878;28;20214;-71
2021/06/11 13:11:19;;;;;;;4.23;3.00;;;;;;;;;;4965923;28;20314;-71
2021/06/11 13:13:48;;;;;;;4.77;2.30;;;;;;;;;;4966947;28;20267;-71
2021/06/11 13:16:15;;;;;;;3.23;2.03;;;;;;;;;;4964518;28;20300;-71
2021/06/11 13:18:42;;;;;;;3.73;2.03;;;;;;;;;;4965642;28;20314;-71
2021/06/11 13:21:08;;;;;;;3.33;2.07;;;;;;;;;;4966899;28;20323;-71
2021/06/11 13:23:35;;;;;;;2.70;2.20;;;;;;;;;;4965756;28;20324;-71
2021/06/11 13:26:02;;;;;;;3.43;2.03;;;;;;;;;;4966022;28;20299;-71
2021/06/11 13:28:28;;;;;;;5.17;2.80;;;;;;;;;;4965884;28;20519;-71
2021/06/11 13:30:56;;;;;;;3.73;2.60;;;;;;;;;;4964655;28;20232;-71
2021/06/11 13:33:23;;;;;;;3.87;2.40;;;;;;;;;;4967769;28;20303;-72
2021/06/11 13:35:50;;;;;;;3.73;2.30;;;;;;;;;;4968336;28;20304;-71
2021/06/11 13:38:17;;;;;;;2.77;2.00;;;;;;;;;;4966768;28;20314;-71
2021/06/11 13:40:45;;;;;;;5.30;2.10;;;;;;;;;;4964747;28;20273;-72
2021/06/11 13:43:11;;;;;;;3.70;1.90;;;;;;;;;;4968103;28;20698;-71
2021/06/11 13:45:38;;;;;;;4.50;2.23;;;;;;;;;;4971624;28;20290;-71
2021/06/11 13:48:06;;;;;;;3.50;2.17;;;;;;;;;;4969252;28;20211;-71
2021/06/11 13:50:33;;;;;;;3.03;2.17;;;;;;;;;;4968444;28;20765;-73
2021/06/11 13:53:00;;;;;;;4.87;2.13;;;;;;;;;;4965600;28;20596;-74
2021/06/11 13:55:27;;;;;;;3.30;2.10;;;;;;;;;;4966840;28;20214;-73